Time;durP1;ratioP1;P1;durP2;ratioP2;P2;SDS_P1;SDS_P2;PMS_P1;PMS_P2;Temp;Humidity;BMP_temperature;BMP_pressure;BME280_temperature;BME280_humidity;BME280_pressure;Samples;Min_cycle;Max_cycle;Signal;HPM_P1;HPM_P2
2023/04/29 12:17:05;;;;;;;9.15;6.50;;;;;;;13.34;88.73;101831.94;5109498;27;20392;-73
2023/04/29 12:19:31;;;;;;;9.65;6.75;;;;;;;13.29;83.58;101830.66;5108903;28;20036;-73
2023/04/29 12:22:02;;;;;;;9.63;7.32;;;;;;;13.37;84.75;101834.19;5105447;28;20031;-73
2023/04/29 12:24:27;;;;;;;11.00;6.28;;;;;;;13.53;86.93;101828.22;5088621;28;20032;-73
2023/04/29 12:26:54;;;;;;;9.05;6.30;;;;;;;13.70;83.09;101827.69;5090269;28;20523;-73
2023/04/29 12:29:22;;;;;;;6.90;6.18;;;;;;;13.83;79.83;101841.19;5109999;28;20036;-73
2023/04/29 12:31:48;;;;;;;8.45;5.93;;;;;;;13.89;80.53;101840.28;5110529;28;20028;-75
2023/04/29 12:34:13;;;;;;;8.13;6.00;;;;;;;13.92;81.50;101834.41;5091917;28;20509;-75
2023/04/29 12:36:41;;;;;;;8.35;6.13;;;;;;;14.13;83.66;101837.75;5104990;28;20027;-74
2023/04/29 12:39:12;;;;;;;8.32;6.25;;;;;;;14.29;81.81;101834.44;5103972;28;20036;-78
2023/04/29 12:41:41;;;;;;;6.70;5.90;;;;;;;14.35;73.38;101835.44;5071120;28;20115;-76
2023/04/29 12:44:09;;;;;;;9.45;5.97;;;;;;;14.32;71.99;101838.63;5109213;28;20032;-73
2023/04/29 12:46:37;;;;;;;7.57;6.25;;;;;;;14.24;73.82;101836.19;5091201;28;20041;-73
2023/04/29 12:49:03;;;;;;;6.30;5.60;;;;;;;14.17;73.84;101834.34;5091668;28;20024;-74
2023/04/29 12:51:31;;;;;;;8.52;6.18;;;;;;;14.14;73.25;101834.78;5109626;28;20471;-74
2023/04/29 12:53:58;;;;;;;7.47;5.65;;;;;;;14.08;70.77;101843.88;5091253;28;20027;-74
2023/04/29 12:56:23;;;;;;;6.65;5.95;;;;;;;14.04;72.33;101844.53;5098427;28;20039;-75
2023/04/29 12:58:48;;;;;;;9.98;6.80;;;;;;;13.97;73.19;101845.44;5096554;28;20048;-75
2023/04/29 13:01:15;;;;;;;9.07;5.97;;;;;;;14.01;73.46;101848.56;5102534;28;20043;-74
2023/04/29 13:03:40;;;;;;;7.43;6.18;;;;;;;14.11;79.28;101846.13;5079806;28;20427;-75
2023/04/29 13:06:08;;;;;;;9.48;5.85;;;;;;;14.23;73.78;101838.06;5106898;28;20101;-76
2023/04/29 13:08:34;;;;;;;9.65;6.00;;;;;;;14.34;76.75;101836.47;5091289;28;20475;-75
2023/04/29 13:10:59;;;;;;;7.13;5.68;;;;;;;14.27;70.73;101839.28;5106022;28;20028;-74
2023/04/29 13:13:24;;;;;;;7.53;5.40;;;;;;;14.26;68.03;101837.63;5116170;28;20035;-74
2023/04/29 13:15:50;;;;;;;8.68;5.85;;;;;;;14.24;72.04;101836.19;5128611;28;20074;-75
2023/04/29 13:18:15;;;;;;;8.75;5.70;;;;;;;14.23;72.14;101838.06;5111552;28;20030;-74
2023/04/29 13:20:41;;;;;;;7.90;5.55;;;;;;;14.21;73.14;101829.31;5108908;28;20114;-73
2023/04/29 13:23:06;;;;;;;8.48;5.90;;;;;;;14.41;73.10;101834.53;5129138;28;20097;-72
2023/04/29 13:25:31;;;;;;;9.25;5.82;;;;;;;14.53;74.16;101832.72;5111233;28;20085;-74
2023/04/29 13:27:56;;;;;;;9.98;5.13;;;;;;;14.68;71.54;101845.97;5118632;28;20477;-75
2023/04/29 13:30:22;;;;;;;6.82;5.05;;;;;;;14.74;72.52;101838.78;5107942;28;20073;-76
2023/04/29 13:32:47;;;;;;;9.23;5.40;;;;;;;14.74;69.33;101843.41;5076810;28;20020;-74
2023/04/29 13:35:13;;;;;;;7.68;5.70;;;;;;;14.69;68.32;101846.81;5108254;28;20035;-73
2023/04/29 13:37:38;;;;;;;7.43;5.55;;;;;;;14.61;69.03;101842.50;5115528;28;20061;-75
2023/04/29 13:40:06;;;;;;;6.55;5.55;;;;;;;14.49;65.25;101838.84;5116099;28;20426;-74
2023/04/29 13:42:31;;;;;;;5.70;5.05;;;;;;;14.54;69.07;101844.44;5102964;28;20515;-77
2023/04/29 13:44:56;;;;;;;7.85;5.18;;;;;;;14.57;69.01;101846.72;5087582;28;20033;-75
2023/04/29 13:47:22;;;;;;;6.22;5.50;;;;;;;14.51;68.70;101839.47;5073447;28;20028;-75
2023/04/29 13:49:48;;;;;;;7.28;5.57;;;;;;;14.49;70.68;101842.41;5095912;28;20080;-75
2023/04/29 13:52:13;;;;;;;7.72;5.13;;;;;;;14.56;70.33;101842.31;5108342;28;20032;-74
2023/04/29 13:54:38;;;;;;;6.97;5.20;;;;;;;14.59;69.85;101841.88;5094533;28;20120;-73
2023/04/29 13:57:04;;;;;;;5.63;5.00;;;;;;;14.61;67.09;101855.28;5095113;28;20038;-75
2023/04/29 13:59:31;;;;;;;7.88;5.30;;;;;;;14.71;68.13;101850.97;5094508;28;20463;-74
2023/04/29 14:01:57;;;;;;;5.90;5.18;;;;;;;14.77;65.68;101856.59;5093521;28;20048;-74
2023/04/29 14:04:23;;;;;;;7.00;5.18;;;;;;;14.83;69.93;101847.50;5084927;28;20491;-73
2023/04/29 14:06:49;;;;;;;6.93;5.65;;;;;;;14.82;68.77;101854.00;5092349;28;20039;-74
2023/04/29 14:09:14;;;;;;;6.05;5.00;;;;;;;14.81;67.65;101849.59;5081941;28;20039;-73
2023/04/29 14:11:40;;;;;;;8.05;5.22;;;;;;;14.79;67.24;101855.28;5090866;28;20471;-73
2023/04/29 14:14:05;;;;;;;6.65;5.15;;;;;;;14.74;71.35;101854.31;5080338;28;20105;-73
2023/04/29 14:16:30;;;;;;;7.95;5.32;;;;;;;14.70;65.40;101853.91;5091606;28;20523;-73
2023/04/29 14:18:56;;;;;;;6.25;4.97;;;;;;;14.69;66.42;101853.09;5075057;28;20115;-73
2023/04/29 14:21:21;;;;;;;6.70;5.35;;;;;;;14.77;66.94;101857.41;5081621;28;20035;-73
2023/04/29 14:23:47;;;;;;;6.82;5.43;;;;;;;14.77;65.55;101860.13;5075436;28;20494;-74
